Time;durP1;ratioP1;P1;durP2;ratioP2;P2;SDS_P1;SDS_P2;PMS_P1;PMS_P2;Temp;Humidity;BMP_temperature;BMP_pressure;BME280_temperature;BME280_humidity;BME280_pressure;Samples;Min_cycle;Max_cycle;Signal;HPM_P1;HPM_P2
2021/10/11 00:00:40;;;;;;;;;;;;;;;11.90;78.33;100361.28;5011624;28;917;-60
2021/10/11 00:03:06;;;;;;;;;;;;;;;11.92;78.60;100355.34;5011503;28;869;-60
2021/10/11 00:05:33;;;;;;;;;;;;;;;11.89;78.28;100351.41;5011575;28;823;-59
2021/10/11 00:07:59;;;;;;;;;;;;;;;11.85;78.19;100345.06;5011433;28;1894;-59
2021/10/11 00:10:26;;;;;;;;;;;;;;;11.83;78.49;100336.34;5011531;28;886;-60
2021/10/11 00:12:53;;;;;;;;;;;;;;;11.84;78.78;100335.97;5011464;28;850;-60
2021/10/11 00:15:24;;;;;;;;;;;;;;;11.86;78.33;100324.47;5011606;28;857;-59
2021/10/11 00:17:51;;;;;;;;;;;;;;;11.90;78.67;100332.81;5011464;28;1106;-60
2021/10/11 00:20:18;;;;;;;;;;;;;;;11.91;78.32;100320.56;5011396;28;870;-59
2021/10/11 00:22:44;;;;;;;;;;;;;;;11.93;78.55;100307.09;5011435;28;815;-59
2021/10/11 00:25:11;;;;;;;;;;;;;;;11.95;78.53;100316.56;5011279;28;831;-59
2021/10/11 00:27:38;;;;;;;;;;;;;;;11.97;78.49;100303.13;5011262;28;1918;-59
2021/10/11 00:30:06;;;;;;;;;;;;;;;11.95;77.98;100294.41;5011254;28;831;-59
2021/10/11 00:32:32;;;;;;;;;;;;;;;11.94;78.21;100292.81;5011445;28;859;-59
2021/10/11 00:35:00;;;;;;;;;;;;;;;11.95;78.53;100291.66;5011297;28;815;-59
2021/10/11 00:37:27;;;;;;;;;;;;;;;11.98;78.39;100287.28;5011507;28;854;-59
2021/10/11 00:39:53;;;;;;;;;;;;;;;11.99;78.28;100286.88;5011244;28;800;-59
2021/10/11 00:42:19;;;;;;;;;;;;;;;11.98;78.27;100288.06;5011281;28;839;-59
2021/10/11 00:44:46;;;;;;;;;;;;;;;11.98;77.97;100282.53;5011380;28;914;-59
2021/10/11 00:47:13;;;;;;;;;;;;;;;11.95;78.05;100282.53;5011645;28;1885;-60
2021/10/11 00:49:40;;;;;;;;;;;;;;;11.86;78.36;100274.59;5014991;28;815;-59
2021/10/11 00:52:06;;;;;;;;;;;;;;;11.80;78.26;100265.94;5014548;28;858;-59
2021/10/11 00:54:33;;;;;;;;;;;;;;;11.77;78.60;100263.16;5014652;28;854;-59
2021/10/11 00:56:59;;;;;;;;;;;;;;;11.71;79.00;100256.44;5014436;28;854;-59
2021/10/11 00:59:26;;;;;;;;;;;;;;;11.67;78.80;100263.97;5014484;28;800;-59
2021/10/11 01:01:52;;;;;;;;;;;;;;;11.71;79.25;100262.00;5014482;28;877;-59
2021/10/11 01:04:19;;;;;;;;;;;;;;;11.74;79.24;100256.44;5014376;28;783;-59
2021/10/11 01:06:46;;;;;;;;;;;;;;;11.75;78.93;100251.69;5014371;28;933;-59
2021/10/11 01:09:13;;;;;;;;;;;;;;;11.79;79.11;100255.25;5014167;28;1882;-59
2021/10/11 01:11:40;;;;;;;;;;;;;;;11.79;78.92;100264.34;5014374;28;803;-59
2021/10/11 01:14:06;;;;;;;;;;;;;;;11.79;78.86;100258.81;5014190;28;783;-59
2021/10/11 01:16:33;;;;;;;;;;;;;;;11.81;78.76;100270.28;5014348;28;917;-60
2021/10/11 01:18:59;;;;;;;;;;;;;;;11.82;79.23;100259.97;5013872;28;1329;-60
2021/10/11 01:21:26;;;;;;;;;;;;;;;11.76;79.09;100245.75;5014118;28;834;-59
2021/10/11 01:23:53;;;;;;;;;;;;;;;11.71;79.02;100239.84;4996441;28;828;-59
2021/10/11 01:26:20;;;;;;;;;;;;;;;11.71;79.35;100245.38;4996322;28;1304;-59
2021/10/11 01:28:47;;;;;;;;;;;;;;;11.73;79.41;100234.69;5013956;28;1941;-59
2021/10/11 01:31:14;;;;;;;;;;;;;;;11.75;79.29;100237.84;5013880;28;867;-60
2021/10/11 01:33:40;;;;;;;;;;;;;;;11.79;79.14;100244.16;5013898;28;894;-59
2021/10/11 01:36:07;;;;;;;;;;;;;;;11.80;79.06;100248.53;5013821;28;838;-60
2021/10/11 01:38:34;;;;;;;;;;;;;;;11.83;79.06;100240.19;5013772;28;788;-60
2021/10/11 01:41:00;;;;;;;;;;;;;;;11.83;79.22;100234.66;5014083;28;815;-60
2021/10/11 01:43:27;;;;;;;;;;;;;;;11.83;78.72;100231.88;5013760;28;866;-59
2021/10/11 01:45:54;;;;;;;;;;;;;;;11.82;78.93;100227.56;5013881;28;850;-59
2021/10/11 01:48:21;;;;;;;;;;;;;;;11.83;79.09;100217.25;4996032;28;1947;-59
2021/10/11 01:50:47;;;;;;;;;;;;;;;11.84;78.56;100216.06;5013817;28;881;-59
2021/10/11 01:53:14;;;;;;;;;;;;;;;11.89;78.73;100209.38;5013770;28;807;-59
2021/10/11 01:55:40;;;;;;;;;;;;;;;11.89;78.69;100212.91;5013878;28;823;-59
2021/10/11 01:58:06;;;;;;;;;;;;;;;11.95;78.19;100210.50;4995872;28;1292;-60
2021/10/11 02:00:33;;;;;;;;;;;;;;;11.98;78.37;100218.03;5013366;28;874;-59
2021/10/11 02:03:04;;;;;;;;;;;;;;;12.00;78.28;100207.34;4995711;28;1177;-59
2021/10/11 02:05:31;;;;;;;;;;;;;;;12.02;78.03;100208.50;4995705;28;1177;-59
2021/10/11 02:07:58;;;;;;;;;;;;;;;12.09;77.94;100209.66;5013147;28;1894;-59
2021/10/11 02:10:25;;;;;;;;;;;;;;;12.11;77.95;100212.81;5013196;28;850;-59
2021/10/11 02:12:51;;;;;;;;;;;;;;;12.14;78.29;100207.28;5013169;28;870;-59
2021/10/11 02:15:18;;;;;;;;;;;;;;;12.13;78.21;100200.13;5013145;28;795;-59
2021/10/11 02:17:44;;;;;;;;;;;;;;;12.14;78.14;100207.28;5013329;28;1188;-60
2021/10/11 02:20:11;;;;;;;;;;;;;;;12.13;78.60;100208.44;5013591;28;795;-60
2021/10/11 02:22:38;;;;;;;;;;;;;;;12.14;78.52;100214.78;5013140;28;913;-60
2021/10/11 02:25:04;;;;;;;;;;;;;;;12.11;78.84;100205.28;5013525;28;822;-59
2021/10/11 02:27:31;;;;;;;;;;;;;;;12.13;78.81;100215.97;5012823;28;1910;-60
2021/10/11 02:29:57;;;;;;;;;;;;;;;12.12;78.93;100208.84;5013188;28;808;-59
2021/10/11 02:32:24;;;;;;;;;;;;;;;12.12;78.95;100208.84;5012720;28;804;-59
2021/10/11 02:34:51;;;;;;;;;;;;;;;12.12;79.05;100197.75;5012724;28;788;-60
2021/10/11 02:37:18;;;;;;;;;;;;;;;12.12;79.09;100200.53;5012646;28;850;-59
2021/10/11 02:39:43;;;;;;;;;;;;;;;12.14;79.04;100209.25;5012620;28;795;-59
2021/10/11 02:42:10;;;;;;;;;;;;;;;12.16;79.20;100206.84;5012729;28;831;-60
2021/10/11 02:44:37;;;;;;;;;;;;;;;12.15;78.81;100208.06;5012524;28;847;-59
2021/10/11 02:47:03;;;;;;;;;;;;;;;12.15;79.33;100208.84;5012468;28;1886;-60
2021/10/11 02:49:30;;;;;;;;;;;;;;;12.14;79.35;100206.47;5012478;28;854;-59
2021/10/11 02:51:56;;;;;;;;;;;;;;;12.16;79.06;100195.75;5012452;28;827;-60
2021/10/11 02:54:23;;;;;;;;;;;;;;;12.16;79.15;100187.44;5012395;28;858;-59
2021/10/11 02:56:50;;;;;;;;;;;;;;;12.15;79.27;100191.44;5012533;28;895;-59
2021/10/11 02:59:16;;;;;;;;;;;;;;;12.14;79.28;100181.53;5012269;28;836;-59
2021/10/11 03:01:43;;;;;;;;;;;;;;;12.16;78.96;100176.38;5012319;28;886;-59
2021/10/11 03:04:09;;;;;;;;;;;;;;;12.17;78.93;100172.44;5012142;28;850;-59
2021/10/11 03:06:36;;;;;;;;;;;;;;;12.18;79.04;100168.44;5012348;28;866;-59
2021/10/11 03:09:03;;;;;;;;;;;;;;;12.18;79.01;100163.72;5012037;28;1886;-59
2021/10/11 03:11:30;;;;;;;;;;;;;;;12.20;79.11;100149.44;5011687;28;804;-59
2021/10/11 03:13:56;;;;;;;;;;;;;;;12.20;78.98;100149.44;5012113;28;874;-59
2021/10/11 03:16:23;;;;;;;;;;;;;;;12.19;79.18;100148.66;5012114;28;983;-59
2021/10/11 03:18:50;;;;;;;;;;;;;;;12.21;79.12;100154.56;5011830;28;1398;-59
2021/10/11 03:21:21;;;;;;;;;;;;;;;12.23;78.97;100148.63;5011971;28;799;-59
2021/10/11 03:23:49;;;;;;;;;;;;;;;12.22;78.66;100138.72;5011985;28;823;-59
2021/10/11 03:26:16;;;;;;;;;;;;;;;12.24;79.19;100139.91;5011765;28;846;-59
2021/10/11 03:28:42;;;;;;;;;;;;;;;12.23;79.16;100134.78;5011849;28;1981;-60
2021/10/11 03:31:09;;;;;;;;;;;;;;;12.22;79.11;100128.44;5011852;28;811;-59
2021/10/11 03:33:36;;;;;;;;;;;;;;;12.23;78.97;100127.25;5011759;28;882;-59
2021/10/11 03:36:03;;;;;;;;;;;;;;;12.24;79.01;100130.81;5011828;28;811;-60
2021/10/11 03:38:30;;;;;;;;;;;;;;;12.21;79.04;100129.63;5012080;28;870;-59
2021/10/11 03:40:57;;;;;;;;;;;;;;;12.21;78.85;100126.88;5011767;28;803;-59
2021/10/11 03:43:24;;;;;;;;;;;;;;;12.20;78.89;100130.03;5011734;28;823;-59
2021/10/11 03:45:50;;;;;;;;;;;;;;;12.18;78.88;100132.41;5011736;28;859;-59
2021/10/11 03:48:17;;;;;;;;;;;;;;;12.16;79.00;100143.94;5011552;28;1882;-59
2021/10/11 03:50:45;;;;;;;;;;;;;;;12.14;78.81;100138.00;5011693;28;795;-59
2021/10/11 03:53:13;;;;;;;;;;;;;;;12.12;78.98;100148.69;5011653;28;855;-59
2021/10/11 03:55:41;;;;;;;;;;;;;;;12.10;78.64;100145.53;5011526;28;822;-59
2021/10/11 03:58:08;;;;;;;;;;;;;;;12.07;79.21;100145.56;5011599;28;862;-59
2021/10/11 04:00:34;;;;;;;;;;;;;;;12.06;79.32;100144.78;5011567;28;869;-59
2021/10/11 04:03:03;;;;;;;;;;;;;;;12.08;79.33;100152.66;5011796;28;771;-59
2021/10/11 04:05:30;;;;;;;;;;;;;;;12.10;79.24;100147.50;5011471;28;922;-59
2021/10/11 04:08:01;;;;;;;;;;;;;;;12.10;78.98;100139.19;5011698;28;1949;-59
2021/10/11 04:10:31;;;;;;;;;;;;;;;12.11;78.83;100151.88;5011505;28;854;-59
2021/10/11 04:13:02;;;;;;;;;;;;;;;12.13;78.90;100144.72;5011541;28;823;-59
2021/10/11 04:15:29;;;;;;;;;;;;;;;12.15;79.19;100139.56;5011636;28;890;-59
2021/10/11 04:17:55;;;;;;;;;;;;;;;12.17;79.00;100145.50;5011593;28;1330;-59
2021/10/11 04:20:22;;;;;;;;;;;;;;;12.17;78.92;100139.94;5011480;28;827;-59
2021/10/11 04:22:49;;;;;;;;;;;;;;;12.21;78.79;100140.72;5013080;28;826;-59
2021/10/11 04:25:16;;;;;;;;;;;;;;;12.21;78.86;100139.94;5015001;28;827;-59
2021/10/11 04:27:42;;;;;;;;;;;;;;;12.20;78.95;100141.91;5015048;28;1906;-59
2021/10/11 04:30:09;;;;;;;;;;;;;;;12.20;78.99;100133.59;5015005;28;843;-59
2021/10/11 04:32:36;;;;;;;;;;;;;;;12.20;79.15;100138.34;5015089;28;807;-59
2021/10/11 04:35:02;;;;;;;;;;;;;;;12.19;78.80;100129.25;5014899;28;812;-59
2021/10/11 04:37:29;;;;;;;;;;;;;;;12.20;78.89;100130.03;5015044;28;787;-59
2021/10/11 04:39:56;;;;;;;;;;;;;;;12.18;78.75;100140.72;5014856;28;906;-59
2021/10/11 04:42:23;;;;;;;;;;;;;;;12.21;78.76;100139.94;5014852;28;803;-59
2021/10/11 04:44:49;;;;;;;;;;;;;;;12.22;78.90;100138.72;5015068;28;851;-59
2021/10/11 04:47:16;;;;;;;;;;;;;;;12.26;78.58;100125.66;5014684;28;1883;-59
2021/10/11 04:49:43;;;;;;;;;;;;;;;12.31;77.91;100127.19;5014755;28;807;-59
2021/10/11 04:52:10;;;;;;;;;;;;;;;12.31;78.41;100127.19;5014610;28;811;-59
2021/10/11 04:54:35;;;;;;;;;;;;;;;12.33;77.97;100131.16;5014744;28;811;-59
2021/10/11 04:57:02;;;;;;;;;;;;;;;12.36;77.96;100129.56;5014495;28;879;-59
2021/10/11 04:59:29;;;;;;;;;;;;;;;12.38;77.76;100132.72;5014598;28;839;-59
2021/10/11 05:01:55;;;;;;;;;;;;;;;12.41;77.68;100135.44;5014464;28;807;-59
2021/10/11 05:04:22;;;;;;;;;;;;;;;12.46;77.60;100134.25;5014404;28;871;-59
2021/10/11 05:06:48;;;;;;;;;;;;;;;12.46;77.49;100135.00;5014522;28;820;-59
2021/10/11 05:09:15;;;;;;;;;;;;;;;12.47;77.72;100135.78;5014616;28;1918;-59
2021/10/11 05:17:15;;;;;;;;;;;;;;;12.52;77.33;100131.81;5940793;23;1694;-58
2021/10/11 05:19:42;;;;;;;;;;;;;;;12.52;77.09;100135.34;5014185;28;915;-57
2021/10/11 05:22:08;;;;;;;;;;;;;;;12.56;77.18;100121.47;5014439;28;846;-57
2021/10/11 05:24:35;;;;;;;;;;;;;;;12.57;76.36;100117.53;5014126;28;826;-57
2021/10/11 05:27:01;;;;;;;;;;;;;;;12.62;76.31;100105.97;5014180;28;886;-57
2021/10/11 05:29:28;;;;;;;;;;;;;;;12.66;75.69;100113.06;5013955;28;1909;-58
2021/10/11 05:31:54;;;;;;;;;;;;;;;12.67;75.54;100111.06;5014196;28;973;-57
2021/10/11 05:34:21;;;;;;;;;;;;;;;12.71;75.01;100109.06;5013815;28;869;-57
2021/10/11 05:36:48;;;;;;;;;;;;;;;12.76;74.68;100111.41;5013912;28;851;-57
2021/10/11 05:39:15;;;;;;;;;;;;;;;12.79;74.28;100113.34;5013736;28;573;-57
2021/10/11 05:41:41;;;;;;;;;;;;;;;12.86;74.37;100106.94;5013697;28;877;-57
2021/10/11 05:44:08;;;;;;;;;;;;;;;12.89;73.79;100108.91;5013686;28;806;-57
2021/10/11 05:46:35;;;;;;;;;;;;;;;12.96;73.66;100106.06;5013692;28;882;-58
2021/10/11 05:49:03;;;;;;;;;;;;;;;13.00;73.27;100103.25;5013534;28;1934;-57
2021/10/11 05:51:29;;;;;;;;;;;;;;;13.07;72.99;100100.41;5013536;28;910;-57
2021/10/11 05:53:56;;;;;;;;;;;;;;;13.16;72.54;100099.91;5013553;28;846;-57
2021/10/11 05:56:23;;;;;;;;;;;;;;;13.24;72.18;100099.41;5013466;28;873;-57
2021/10/11 05:58:50;;;;;;;;;;;;;;;13.26;71.57;100104.56;5013378;28;937;-58
2021/10/11 06:01:16;;;;;;;;;;;;;;;13.26;71.33;100104.56;5013421;28;890;-57
2021/10/11 06:03:42;;;;;;;;;;;;;;;13.32;71.00;100105.72;5013402;28;823;-57
2021/10/11 06:06:09;;;;;;;;;;;;;;;13.40;70.49;100098.88;5013278;28;878;-57
2021/10/11 06:08:35;;;;;;;;;;;;;;;13.44;70.50;100107.97;5013441;28;1957;-57
2021/10/11 06:11:02;;;;;;;;;;;;;;;13.48;70.47;100107.91;5013202;28;886;-58
2021/10/11 06:13:27;;;;;;;;;;;;;;;13.50;69.87;100110.28;5013479;28;803;-57
2021/10/11 06:15:54;;;;;;;;;;;;;;;13.47;69.81;100121.00;5013040;28;913;-58
2021/10/11 06:18:21;;;;;;;;;;;;;;;13.49;70.21;100131.72;5013023;28;1292;-57
2021/10/11 06:20:48;;;;;;;;;;;;;;;13.52;69.91;100125.31;5013115;28;877;-58
2021/10/11 06:23:14;;;;;;;;;;;;;;;13.57;69.84;100124.06;5013044;28;803;-56
2021/10/11 06:25:44;;;;;;;;;;;;;;;13.60;69.78;100112.91;5013011;28;870;-57
2021/10/11 06:28:14;;;;;;;;;;;;;;;13.61;69.46;100116.47;5012903;28;1973;-57
2021/10/11 06:30:45;;;;;;;;;;;;;;;13.66;69.20;100113.25;5012798;28;856;-58
2021/10/11 06:33:12;;;;;;;;;;;;;;;13.67;68.97;100117.59;5012949;28;927;-57
2021/10/11 06:35:38;;;;;;;;;;;;;;;13.76;68.98;100119.88;5012837;28;870;-57
2021/10/11 06:38:05;;;;;;;;;;;;;;;13.84;68.99;100116.56;5012738;28;838;-57
2021/10/11 06:40:32;;;;;;;;;;;;;;;13.91;68.54;100115.69;5013013;28;844;-58
2021/10/11 06:42:59;;;;;;;;;;;;;;;13.96;68.50;100114.47;5012661;28;811;-58
2021/10/11 06:45:25;;;;;;;;;;;;;;;14.01;67.56;100111.97;5011850;28;823;-55
2021/10/11 06:47:52;;;;;;;;;;;;;;;14.10;67.83;100117.00;5012413;28;1885;-57
2021/10/11 06:50:22;;;;;;;;;;;;;;;14.17;67.73;100105.81;5012533;28;811;-58
2021/10/11 06:55:50;;;;;;;;;;;;;;;14.45;66.81;100095.47;5012413;28;652;-56
2021/10/11 06:58:20;;;;;;;;;;;;;;;14.41;66.64;100103.84;5012447;28;803;-57
2021/10/11 07:00:47;;;;;;;;;;;;;;;14.48;66.55;100095.38;5012223;28;867;-58
2021/10/11 07:03:15;;;;;;;;;;;;;;;14.59;66.56;100102.78;5012254;28;984;-58
2021/10/11 07:05:41;;;;;;;;;;;;;;;14.76;66.18;100104.50;5012057;28;966;-57
2021/10/11 07:08:10;;;;;;;;;;;;;;;14.87;64.84;100096.75;5012217;28;1890;-58
2021/10/11 07:10:36;;;;;;;;;;;;;;;15.04;64.64;100107.97;5012446;28;859;-58
2021/10/11 07:13:03;;;;;;;;;;;;;;;15.18;63.80;100104.94;5012179;28;830;-58
2021/10/11 07:15:30;;;;;;;;;;;;;;;15.19;63.23;100100.16;5012081;28;807;-58
2021/10/11 07:17:56;;;;;;;;;;;;;;;15.05;63.87;100104.00;5012036;28;1190;-58
2021/10/11 07:20:23;;;;;;;;;;;;;;;14.98;64.31;100104.09;5012017;28;897;-58
2021/10/11 07:35:20;;;;;;;;;;;;;;;15.02;65.41;100082.56;4951640;29;696;-58
2021/10/11 07:37:47;;;;;;;;;;;;;;;15.13;65.46;100076.78;4951924;29;871;-56
2021/10/11 07:40:14;;;;;;;;;;;;;;;15.25;64.97;100068.59;4951548;29;993;-57
2021/10/11 07:42:41;;;;;;;;;;;;;;;15.24;65.11;100067.03;4951661;29;815;-56
2021/10/11 07:45:08;;;;;;;;;;;;;;;15.22;65.08;100069.47;4951334;29;924;-56
2021/10/11 07:47:34;;;;;;;;;;;;;;;15.24;65.40;100067.03;4951552;29;2038;-58
2021/10/11 07:50:01;;;;;;;;;;;;;;;15.35;65.32;100072.38;4951652;29;890;-58
2021/10/11 07:52:27;;;;;;;;;;;;;;;15.36;65.31;100073.16;4951531;29;872;-58
2021/10/11 07:54:54;;;;;;;;;;;;;;;15.32;65.35;100071.25;4951459;29;898;-58
2021/10/11 07:57:21;;;;;;;;;;;;;;;15.43;65.57;100070.25;4953965;28;824;-58
2021/10/11 07:59:48;;;;;;;;;;;;;;;15.41;65.66;100067.13;4939322;29;933;-58
2021/10/11 08:14:26;;;;;;;;;;;;;;;15.52;65.13;100053.75;5015658;28;609;-58
2021/10/11 08:16:52;;;;;;;;;;;;;;;15.49;65.21;100055.38;5015567;28;904;-58
2021/10/11 08:19:19;;;;;;;;;;;;;;;15.59;64.83;100052.78;4997636;28;1677;-58
2021/10/11 08:21:45;;;;;;;;;;;;;;;15.78;64.58;100052.00;5015240;28;850;-58
2021/10/11 08:24:13;;;;;;;;;;;;;;;15.82;63.41;100051.94;5015250;28;826;-58
2021/10/11 08:26:40;;;;;;;;;;;;;;;15.90;64.21;100044.97;5015154;28;851;-58
2021/10/11 08:29:07;;;;;;;;;;;;;;;16.01;64.01;100048.31;5014937;28;1910;-58
2021/10/11 08:31:33;;;;;;;;;;;;;;;16.05;63.91;100051.00;5015391;28;838;-58
2021/10/11 08:34:00;;;;;;;;;;;;;;;15.89;63.45;100052.53;5015037;28;893;-58
2021/10/11 08:36:27;;;;;;;;;;;;;;;15.77;63.69;100058.00;5015008;28;913;-58
2021/10/11 08:38:54;;;;;;;;;;;;;;;15.71;63.94;100050.16;4997360;28;1296;-58
2021/10/11 08:41:20;;;;;;;;;;;;;;;15.73;63.96;100052.53;5014923;28;831;-58
2021/10/11 08:43:47;;;;;;;;;;;;;;;15.77;64.22;100052.44;5014764;28;875;-58
2021/10/11 08:46:14;;;;;;;;;;;;;;;15.79;64.20;100050.00;5014876;28;806;-58
2021/10/11 08:48:40;;;;;;;;;;;;;;;15.77;63.86;100049.63;4997129;28;1867;-58
2021/10/11 08:51:08;;;;;;;;;;;;;;;15.66;63.99;100036.72;5014713;28;779;-58
2021/10/11 08:56:36;;;;;;;;;;;;;;;15.70;64.03;100039.41;5014657;28;625;-58
2021/10/11 08:59:01;;;;;;;;;;;;;;;15.85;63.75;100048.25;4997012;28;1456;-58
2021/10/11 09:01:28;;;;;;;;;;;;;;;15.91;63.39;100049.31;5014613;28;890;-58
2021/10/11 09:03:55;;;;;;;;;;;;;;;16.00;63.52;100045.94;5014568;28;822;-58
2021/10/11 09:06:21;;;;;;;;;;;;;;;16.11;63.42;100049.28;4996826;28;1668;-58
2021/10/11 09:08:49;;;;;;;;;;;;;;;16.17;63.58;100041.16;5013885;28;1953;-58
2021/10/11 09:11:15;;;;;;;;;;;;;;;15.92;63.72;100045.34;5014242;28;867;-58
2021/10/11 09:13:44;;;;;;;;;;;;;;;15.50;65.50;100039.47;5014598;28;869;-58
2021/10/11 09:16:14;;;;;;;;;;;;;;;15.21;66.83;100034.50;5014207;28;1053;-58
2021/10/11 09:18:43;;;;;;;;;;;;;;;15.11;67.60;100033.47;5014044;28;1450;-57
2021/10/11 09:21:12;;;;;;;;;;;;;;;15.05;68.32;100032.41;5014141;28;920;-58
2021/10/11 09:23:39;;;;;;;;;;;;;;;15.00;68.91;100037.66;5014159;28;806;-58
2021/10/11 09:26:19;;;;;;;;;;;;;;;14.95;69.46;100035.38;5014094;28;811;-58
2021/10/11 09:28:56;;;;;;;;;;;;;;;14.77;70.33;100032.97;5014341;28;1910;-58
2021/10/11 09:31:42;;;;;;;;;;;;;;;14.48;71.25;100023.06;5014009;28;865;-57
2021/10/11 09:34:09;;;;;;;;;;;;;;;14.31;72.34;100026.94;5013884;28;860;-58
2021/10/11 09:36:36;;;;;;;;;;;;;;;14.19;73.25;100016.41;5013861;28;898;-57
2021/10/11 09:39:03;;;;;;;;;;;;;;;14.08;73.56;100017.41;5013831;28;898;-57
2021/10/11 09:41:30;;;;;;;;;;;;;;;14.15;73.83;100012.94;5013716;28;912;-57
2021/10/11 09:43:58;;;;;;;;;;;;;;;14.25;73.92;100011.94;5013775;28;838;-57
2021/10/11 09:46:26;;;;;;;;;;;;;;;14.25;74.22;99998.84;5013751;28;827;-58
2021/10/11 09:48:55;;;;;;;;;;;;;;;14.32;74.21;100003.50;5013783;28;1973;-58
2021/10/11 09:51:22;;;;;;;;;;;;;;;14.37;74.05;100003.00;5013789;28;826;-58
2021/10/11 09:53:50;;;;;;;;;;;;;;;14.54;73.94;99998.34;5013412;28;906;-58
2021/10/11 09:56:17;;;;;;;;;;;;;;;14.68;73.83;99989.78;5013463;28;925;-58
2021/10/11 09:58:44;;;;;;;;;;;;;;;14.83;73.08;99981.13;5013430;28;819;-58
2021/10/11 10:01:12;;;;;;;;;;;;;;;14.95;72.70;99977.72;5013471;28;850;-58
2021/10/11 10:03:39;;;;;;;;;;;;;;;15.09;72.03;99968.31;5013347;28;870;-58
2021/10/11 10:06:07;;;;;;;;;;;;;;;15.25;71.67;99971.13;5013276;28;947;-58
2021/10/11 10:08:37;;;;;;;;;;;;;;;15.50;70.49;99967.03;5013239;28;1886;-59
2021/10/11 10:11:04;;;;;;;;;;;;;;;15.67;69.62;99965.06;5013426;28;911;-58
2021/10/11 10:13:46;;;;;;;;;;;;;;;15.75;69.45;99960.16;5013232;28;919;-58
2021/10/11 10:16:14;;;;;;;;;;;;;;;15.84;69.27;99963.88;5013077;28;983;-58
2021/10/11 10:18:42;;;;;;;;;;;;;;;15.83;69.04;99967.09;5012890;28;1509;-58
2021/10/11 10:21:10;;;;;;;;;;;;;;;15.91;68.93;99974.06;5012027;28;855;-58
2021/10/11 10:23:39;;;;;;;;;;;;;;;15.89;68.79;99980.06;5012849;28;854;-58
2021/10/11 10:26:07;;;;;;;;;;;;;;;15.89;69.06;99970.94;5013071;28;804;-58
2021/10/11 10:28:46;;;;;;;;;;;;;;;15.86;68.98;99978.16;5013070;28;1910;-58
2021/10/11 10:31:31;;;;;;;;;;;;;;;15.89;68.73;99970.94;5013093;28;947;-58
2021/10/11 10:33:58;;;;;;;;;;;;;;;15.88;68.05;99969.38;5012685;28;922;-58
2021/10/11 10:36:30;;;;;;;;;;;;;;;15.81;67.82;99961.97;5012838;28;806;-58
2021/10/11 10:39:05;;;;;;;;;;;;;;;15.81;67.19;99964.75;5012745;28;807;-56
2021/10/11 10:41:32;;;;;;;;;;;;;;;15.73;66.56;99957.78;5012694;28;930;-58
2021/10/11 10:44:19;;;;;;;;;;;;;;;15.71;66.38;99954.63;5013006;28;890;-58
2021/10/11 10:47:03;;;;;;;;;;;;;;;15.99;66.09;99939.22;5012756;28;1766;-58
2021/10/11 10:49:34;;;;;;;;;;;;;;;16.23;65.73;99934.22;5012437;28;1862;-58
2021/10/11 10:52:08;;;;;;;;;;;;;;;16.14;65.68;99931.28;5012778;28;882;-58
2021/10/11 10:54:36;;;;;;;;;;;;;;;16.05;66.32;99929.13;5012412;28;858;-58
2021/10/11 10:57:04;;;;;;;;;;;;;;;15.98;66.13;99932.09;5012408;28;935;-58
2021/10/11 10:59:31;;;;;;;;;;;;;;;15.81;66.56;99931.31;5012383;28;894;-58
2021/10/11 11:02:11;;;;;;;;;;;;;;;15.80;67.29;99931.75;5012437;28;823;-58
2021/10/11 11:04:38;;;;;;;;;;;;;;;15.84;67.32;99921.31;5012492;28;966;-58
2021/10/11 11:07:11;;;;;;;;;;;;;;;15.93;67.49;99916.66;5012397;28;859;-58
2021/10/11 11:09:38;;;;;;;;;;;;;;;15.89;67.66;99912.41;5012008;28;1878;-57
2021/10/11 11:12:05;;;;;;;;;;;;;;;15.77;67.92;99908.31;5012021;28;919;-57
2021/10/11 11:14:33;;;;;;;;;;;;;;;15.78;68.05;99915.44;5012226;28;834;-58
2021/10/11 11:17:00;;;;;;;;;;;;;;;15.69;68.06;99901.31;5012328;28;1018;-57
2021/10/11 11:19:37;;;;;;;;;;;;;;;15.69;67.77;99896.53;4994378;28;1234;-57
2021/10/11 11:22:04;;;;;;;;;;;;;;;15.61;67.87;99900.69;5012073;28;827;-58
2021/10/11 11:24:32;;;;;;;;;;;;;;;15.51;67.72;99888.63;5011977;28;820;-57
2021/10/11 11:27:02;;;;;;;;;;;;;;;15.54;68.16;99889.75;4994439;28;878;-57
2021/10/11 11:29:29;;;;;;;;;;;;;;;15.63;67.91;99884.34;5012055;28;1910;-58
2021/10/11 11:31:56;;;;;;;;;;;;;;;15.80;67.36;99879.56;5011659;28;807;-58
2021/10/11 11:34:24;;;;;;;;;;;;;;;15.88;67.31;99883.75;5012079;28;831;-58
2021/10/11 11:36:51;;;;;;;;;;;;;;;16.07;66.97;99872.94;5012064;28;861;-58
2021/10/11 11:39:19;;;;;;;;;;;;;;;16.31;66.75;99868.69;5011683;28;923;-58
2021/10/11 11:41:55;;;;;;;;;;;;;;;16.37;65.62;99857.78;5011650;28;910;-58
2021/10/11 11:44:30;;;;;;;;;;;;;;;16.74;65.52;99853.50;5012117;28;898;-58
2021/10/11 11:47:09;;;;;;;;;;;;;;;17.04;64.18;99845.88;5012122;28;862;-58
2021/10/11 12:01:47;;;;;;;;;;;;;;;16.18;65.71;99851.13;5011954;28;614;-58
2021/10/11 12:04:14;;;;;;;;;;;;;;;15.97;66.21;99860.06;5011646;28;890;-58
2021/10/11 12:06:41;;;;;;;;;;;;;;;15.73;66.78;99857.47;5011562;28;830;-58
2021/10/11 12:09:09;;;;;;;;;;;;;;;15.56;67.68;99851.09;5011513;28;1953;-57
2021/10/11 12:11:36;;;;;;;;;;;;;;;15.44;68.15;99851.78;5011325;28;934;-57
2021/10/11 12:14:03;;;;;;;;;;;;;;;15.35;68.46;99843.25;4994473;28;959;-57
2021/10/11 12:16:30;;;;;;;;;;;;;;;15.28;68.75;99839.41;5011399;28;902;-57
2021/10/11 12:18:59;;;;;;;;;;;;;;;15.22;69.27;99835.59;5011216;28;1486;-57
2021/10/11 12:21:27;;;;;;;;;;;;;;;15.19;69.50;99836.47;5011386;28;868;-58
2021/10/11 12:26:57;;;;;;;;;;;;;;;15.28;69.64;99822.72;5011511;28;605;-57
2021/10/11 12:29:26;;;;;;;;;;;;;;;15.30;69.50;99813.94;5011412;28;1910;-57
2021/10/11 12:32:07;;;;;;;;;;;;;;;15.22;69.92;99806.97;5011356;28;834;-58
2021/10/11 12:34:35;;;;;;;;;;;;;;;15.04;70.29;99804.59;5011597;28;850;-58
2021/10/11 12:37:03;;;;;;;;;;;;;;;14.93;70.79;99801.28;5011474;28;890;-57
2021/10/11 12:39:31;;;;;;;;;;;;;;;14.87;71.17;99796.22;5011192;28;830;-58
2021/10/11 12:41:59;;;;;;;;;;;;;;;14.87;71.30;99803.78;5011490;28;847;-58
2021/10/11 12:44:36;;;;;;;;;;;;;;;14.83;71.38;99798.31;5013983;28;807;-57
2021/10/11 12:47:04;;;;;;;;;;;;;;;14.77;71.70;99791.69;5014821;28;885;-57
2021/10/11 12:49:38;;;;;;;;;;;;;;;14.72;71.90;99800.53;5014745;28;1945;-57
2021/10/11 12:52:05;;;;;;;;;;;;;;;14.71;71.87;99798.97;5015056;28;814;-57
2021/10/11 12:54:40;;;;;;;;;;;;;;;14.67;72.18;99795.47;5014876;28;865;-57
2021/10/11 12:57:06;;;;;;;;;;;;;;;14.64;72.18;99791.56;5014586;28;876;-57
2021/10/11 12:59:35;;;;;;;;;;;;;;;14.67;72.52;99787.91;5014638;28;947;-57
2021/10/11 13:02:02;;;;;;;;;;;;;;;14.69;72.41;99785.47;5014489;28;906;-57
2021/10/11 13:04:28;;;;;;;;;;;;;;;14.61;72.91;99789.63;5014634;28;831;-57
2021/10/11 13:06:54;;;;;;;;;;;;;;;14.36;74.01;99787.38;5014401;28;929;-57
2021/10/11 13:09:21;;;;;;;;;;;;;;;14.05;75.32;99793.13;5014341;28;1886;-57
2021/10/11 13:11:49;;;;;;;;;;;;;;;13.80;76.48;99787.25;5014399;28;807;-57
2021/10/11 13:14:15;;;;;;;;;;;;;;;13.59;78.37;99789.22;5014321;28;851;-57
2021/10/11 13:16:42;;;;;;;;;;;;;;;13.36;78.67;99787.22;5014461;28;911;-57
2021/10/11 13:19:09;;;;;;;;;;;;;;;13.20;79.78;99782.28;4996528;28;1788;-57
2021/10/11 13:21:36;;;;;;;;;;;;;;;13.01;81.59;99783.75;4996713;28;1722;-58
2021/10/11 13:24:03;;;;;;;;;;;;;;;12.83;81.94;99778.47;5014120;28;934;-57
2021/10/11 13:26:30;;;;;;;;;;;;;;;12.71;82.91;99775.50;5014160;28;834;-57
2021/10/11 14:26:20;;;;;;;;;;;;;;;12.64;86.57;99746.66;5013758;28;626;-57
2021/10/11 14:29:38;;;;;;;;;;;;;;;12.16;89.58;99733.03;4972298;28;1954;-57
2021/10/11 14:32:14;;;;;;;;;;;;;;;12.09;89.92;99735.91;5012885;28;826;-58
2021/10/11 15:59:58;;;;;;;;;;;;;;;11.89;91.60;99716.38;5011912;28;708;-57
2021/10/11 16:02:36;;;;;;;;;;;;;;;11.91;91.67;99712.00;5011575;28;847;-57
2021/10/11 16:05:04;;;;;;;;;;;;;;;11.92;91.62;99713.53;5011559;28;858;-57
2021/10/11 16:07:31;;;;;;;;;;;;;;;11.92;92.04;99721.84;5011561;28;836;-57
2021/10/11 16:09:57;;;;;;;;;;;;;;;11.94;91.74;99732.53;5011713;28;1949;-57
2021/10/11 16:12:23;;;;;;;;;;;;;;;11.95;91.71;99720.25;5011614;28;943;-57
2021/10/11 16:14:49;;;;;;;;;;;;;;;11.97;91.42;99728.91;5011569;28;874;-57